Taiseimaru — JL6483 — position and weather

sailwx.info

Track history (hours):
 
Tides and Currents Weather Stations Pressure Air Temp Water Temp Dewpoint Dewpoint Depression Visibility Wind Speed Wind Dir Waves Ship Positions

Taiseimaru

Last reported at 2014-Oct-18 08:14 UTC. Time now 2014-Oct-21 21:38 UTC.
Position N 34°35' E 134°50'.

Length 84 m; draft 4.7 m.

Type: Cargo ship. MMSI: 431500568.

Date/timePositionNaut miles runAvg speedWind from/ knotsBaromVisibWave heightAir tempDewpointWater temp
2014-Oct-18 08:14N 34°35' E 134°50'913.6
2014-Oct-18 07:32N 34°37' E 135°01'1212.1
2014-Oct-18 06:33N 34°36' E 135°15'8 7.8
2014-Oct-18 05:29N 34°35' E 135°26'0 0.0
2014-Oct-18 04:29N 34°35' E 135°26'0 0.0
2014-Oct-18 03:29N 34°35' E 135°26'0 0.0
2014-Oct-18 02:29N 34°35' E 135°26'0 0.1
2014-Oct-18 01:32N 34°35' E 135°26'2 1.8
2014-Oct-18 00:23N 34°35' E 135°23'0 0.0
2014-Oct-17 23:17N 34°35' E 135°23'0 0.0
2014-Oct-17 22:17N 34°35' E 135°23'0 0.0
2014-Oct-17 21:29N 34°35' E 135°23'0 0.0
2014-Oct-17 20:23N 34°35' E 135°23'0 0.0
2014-Oct-17 19:29N 34°35' E 135°23'0 0.0
2014-Oct-17 18:29N 34°35' E 135°23'0 0.0
2014-Oct-17 17:29N 34°35' E 135°23'0 0.0
2014-Oct-17 13:10N 34°35' E 135°23'0 0.0
2014-Oct-17 12:28N 34°35' E 135°23'0 0.0
2014-Oct-17 10:22N 34°35' E 135°23'0 0.0
2014-Oct-17 09:28N 34°35' E 135°23'0 0.0
2014-Oct-17 08:28N 34°35' E 135°23'0 0.0
2014-Oct-17 07:04N 34°35' E 135°23'0 0.0
2014-Oct-17 06:04N 34°35' E 135°23'0 0.0
2014-Oct-17 05:10N 34°35' E 135°23'0 0.0
2014-Oct-17 04:22N 34°35' E 135°23'0 0.1
2014-Oct-17 03:22N 34°35' E 135°23'0 0.0
2014-Oct-17 01:28N 34°35' E 135°23'0 0.0
2014-Oct-17 00:22N 34°35' E 135°23'0 0.0
2014-Oct-16 23:22N 34°35' E 135°23'0 0.0
2014-Oct-16 22:22N 34°35' E 135°23'0 0.1
2014-Oct-16 21:28N 34°35' E 135°23'0 0.0
2014-Oct-16 19:22N 34°35' E 135°23'0 0.1
2014-Oct-16 18:22N 34°35' E 135°23'0 0.0
2014-Oct-16 17:22N 34°35' E 135°23'0 0.0
2014-Oct-16 16:22N 34°35' E 135°23'0 0.0
2014-Oct-16 15:28N 34°35' E 135°23'0 0.0
2014-Oct-16 14:28N 34°35' E 135°23'0 0.0
2014-Oct-16 13:10N 34°35' E 135°23'0 0.0
2014-Oct-16 12:16N 34°35' E 135°23'0 0.0
2014-Oct-16 11:16N 34°35' E 135°23'0 0.0
2014-Oct-16 10:10N 34°35' E 135°23'0 0.0
2014-Oct-16 09:28N 34°35' E 135°23'0 0.0
2014-Oct-16 08:28N 34°35' E 135°23'0 0.0
2014-Oct-16 07:16N 34°35' E 135°23'0 0.0
2014-Oct-16 06:31N 34°35' E 135°23'0 0.0
2014-Oct-16 05:31N 34°35' E 135°23'0 0.0
2014-Oct-16 04:24N 34°35' E 135°23'0 0.1
2014-Oct-16 03:24N 34°35' E 135°23'0 0.0
2014-Oct-16 02:30N 34°35' E 135°23'0 0.0
2014-Oct-16 01:24N 34°35' E 135°23'0 0.0
2014-Oct-16 00:30N 34°35' E 135°23'0 0.0
2014-Oct-15 23:24N 34°35' E 135°23'0 0.0
2014-Oct-15 22:24N 34°35' E 135°23'0 0.0
2014-Oct-15 21:24N 34°35' E 135°23'0 0.0
2014-Oct-15 20:24N 34°35' E 135°23'0 0.0
2014-Oct-15 19:24N 34°35' E 135°23'0 0.0
2014-Oct-15 18:24N 34°35' E 135°23'0 0.0
2014-Oct-15 17:30N 34°35' E 135°23'0 0.0
2014-Oct-15 16:24N 34°35' E 135°23'0 0.0
2014-Oct-15 15:24N 34°35' E 135°23'0 0.2
2014-Oct-15 14:33N 34°35' E 135°23'10 9.5
2014-Oct-15 13:33N 34°35' E 135°11'1211.8
2014-Oct-15 12:33N 34°36' E 134°57'  
2014-Oct-11 09:15N 34°34' E 134°49'811.5
2014-Oct-11 08:33N 34°37' E 134°58'1010.1
2014-Oct-11 07:33N 34°36' E 135°10'1211.7
2014-Oct-11 06:34N 34°36' E 135°24'1 1.2
2014-Oct-11 05:21N 34°35' E 135°26'0 0.0
2014-Oct-11 04:33N 34°35' E 135°26'0 0.0
2014-Oct-11 03:27N 34°35' E 135°26'0 0.0
2014-Oct-11 02:21N 34°35' E 135°26'0 0.1
2014-Oct-11 01:33N 34°35' E 135°26'0 0.0
2014-Oct-11 00:27N 34°35' E 135°26'0 0.0
2014-Oct-10 23:08N 34°35' E 135°26'0 0.0
2014-Oct-10 20:32N 34°35' E 135°26'0 0.0
2014-Oct-10 19:20N 34°35' E 135°26'0 0.0
2014-Oct-10 16:20N 34°35' E 135°26'0 0.0
2014-Oct-10 15:32N 34°35' E 135°26'0 0.0
2014-Oct-10 14:14N 34°35' E 135°26'0 0.0
2014-Oct-10 13:32N 34°35' E 135°26'0 0.0
2014-Oct-10 06:20N 34°35' E 135°26'0 0.0
2014-Oct-10 03:14N 34°35' E 135°26'0 0.0
2014-Oct-10 02:20N 34°35' E 135°26'0 0.1
2014-Oct-10 01:33N 34°35' E 135°26'2 1.7
2014-Oct-10 00:23N 34°35' E 135°23'0 0.0
2014-Oct-09 23:23N 34°35' E 135°23'0 0.0
2014-Oct-09 21:23N 34°35' E 135°23'0 0.0
2014-Oct-09 20:23N 34°35' E 135°23'0 0.0
2014-Oct-09 19:17N 34°35' E 135°23'0 0.0
2014-Oct-09 18:23N 34°35' E 135°23'0 0.0
2014-Oct-09 17:29N 34°35' E 135°23'0 0.0
2014-Oct-09 15:23N 34°35' E 135°23'0 0.0
2014-Oct-09 13:29N 34°35' E 135°23'0 0.0
2014-Oct-09 12:05N 34°35' E 135°23'0 0.0
2014-Oct-09 11:29N 34°35' E 135°23'0 0.0
2014-Oct-09 10:29N 34°35' E 135°23'0 0.0
2014-Oct-09 09:22N 34°35' E 135°23'0 0.0
2014-Oct-09 07:22N 34°35' E 135°23'0 0.0
2014-Oct-09 06:10N 34°35' E 135°23'0 0.1
2014-Oct-09 05:33N 34°35' E 135°23'4 3.9
2014-Oct-09 04:29N 34°39' E 135°26'0 0.0
2014-Oct-09 03:28N 34°39' E 135°26'0 0.0
2014-Oct-09 02:16N 34°39' E 135°26'0 0.0
2014-Oct-09 01:28N 34°39' E 135°26'0 0.0
2014-Oct-09 00:22N 34°39' E 135°26'0 0.0
2014-Oct-08 23:28N 34°39' E 135°26'0 0.0
2014-Oct-08 22:28N 34°39' E 135°26'0 0.0
2014-Oct-08 21:28N 34°39' E 135°26'0 0.0
2014-Oct-08 20:28N 34°39' E 135°26'0 0.0
2014-Oct-08 19:28N 34°39' E 135°26'0 0.0
2014-Oct-08 18:28N 34°39' E 135°26'0 0.0
2014-Oct-08 17:28N 34°39' E 135°26'0 0.0
2014-Oct-08 16:16N 34°39' E 135°26'0 0.0
2014-Oct-08 15:28N 34°39' E 135°26'0 0.0
2014-Oct-08 14:28N 34°39' E 135°26'0 0.0
2014-Oct-08 13:28N 34°39' E 135°26'0 0.0
2014-Oct-08 12:28N 34°39' E 135°26'0 0.0
2014-Oct-08 11:16N 34°39' E 135°26'0 0.0
2014-Oct-08 09:28N 34°39' E 135°26'0 0.0
2014-Oct-08 08:28N 34°39' E 135°26'  
Track history (hours):
 
Tides and Currents Weather Stations Pressure Air Temp Water Temp Dewpoint Dewpoint Depression Visibility Wind Speed Wind Dir Waves Ship Positions

Taiseimaru

Last reported at 2014-Oct-18 08:14 UTC. Time now 2014-Oct-21 21:38 UTC.
Position N 34°35' E 134°50'.

Length 84 m; draft 4.7 m.

Type: Cargo ship. MMSI: 431500568.

Date/timePositionNaut miles runAvg speedWind from/ knotsBaromVisibWave heightAir tempDewpointWater temp
2014-Oct-18 08:14N 34°35' E 134°50'913.6
2014-Oct-18 07:32N 34°37' E 135°01'1212.1
2014-Oct-18 06:33N 34°36' E 135°15'8 7.8
2014-Oct-18 05:29N 34°35' E 135°26'0 0.0
2014-Oct-18 04:29N 34°35' E 135°26'0 0.0
2014-Oct-18 03:29N 34°35' E 135°26'0 0.0
2014-Oct-18 02:29N 34°35' E 135°26'0 0.1
2014-Oct-18 01:32N 34°35' E 135°26'2 1.8
2014-Oct-18 00:23N 34°35' E 135°23'0 0.0
2014-Oct-17 23:17N 34°35' E 135°23'0 0.0
2014-Oct-17 22:17N 34°35' E 135°23'0 0.0
2014-Oct-17 21:29N 34°35' E 135°23'0 0.0
2014-Oct-17 20:23N 34°35' E 135°23'0 0.0
2014-Oct-17 19:29N 34°35' E 135°23'0 0.0
2014-Oct-17 18:29N 34°35' E 135°23'0 0.0
2014-Oct-17 17:29N 34°35' E 135°23'0 0.0
2014-Oct-17 13:10N 34°35' E 135°23'0 0.0
2014-Oct-17 12:28N 34°35' E 135°23'0 0.0
2014-Oct-17 10:22N 34°35' E 135°23'0 0.0
2014-Oct-17 09:28N 34°35' E 135°23'0 0.0
2014-Oct-17 08:28N 34°35' E 135°23'0 0.0
2014-Oct-17 07:04N 34°35' E 135°23'0 0.0
2014-Oct-17 06:04N 34°35' E 135°23'0 0.0
2014-Oct-17 05:10N 34°35' E 135°23'0 0.0
2014-Oct-17 04:22N 34°35' E 135°23'0 0.1
2014-Oct-17 03:22N 34°35' E 135°23'0 0.0
2014-Oct-17 01:28N 34°35' E 135°23'0 0.0
2014-Oct-17 00:22N 34°35' E 135°23'0 0.0
2014-Oct-16 23:22N 34°35' E 135°23'0 0.0
2014-Oct-16 22:22N 34°35' E 135°23'0 0.1
2014-Oct-16 21:28N 34°35' E 135°23'0 0.0
2014-Oct-16 19:22N 34°35' E 135°23'0 0.1
2014-Oct-16 18:22N 34°35' E 135°23'0 0.0
2014-Oct-16 17:22N 34°35' E 135°23'0 0.0
2014-Oct-16 16:22N 34°35' E 135°23'0 0.0
2014-Oct-16 15:28N 34°35' E 135°23'0 0.0
2014-Oct-16 14:28N 34°35' E 135°23'0 0.0
2014-Oct-16 13:10N 34°35' E 135°23'0 0.0
2014-Oct-16 12:16N 34°35' E 135°23'0 0.0
2014-Oct-16 11:16N 34°35' E 135°23'0 0.0
2014-Oct-16 10:10N 34°35' E 135°23'0 0.0
2014-Oct-16 09:28N 34°35' E 135°23'0 0.0
2014-Oct-16 08:28N 34°35' E 135°23'0 0.0
2014-Oct-16 07:16N 34°35' E 135°23'0 0.0
2014-Oct-16 06:31N 34°35' E 135°23'0 0.0
2014-Oct-16 05:31N 34°35' E 135°23'0 0.0
2014-Oct-16 04:24N 34°35' E 135°23'0 0.1
2014-Oct-16 03:24N 34°35' E 135°23'0 0.0
2014-Oct-16 02:30N 34°35' E 135°23'0 0.0
2014-Oct-16 01:24N 34°35' E 135°23'0 0.0
2014-Oct-16 00:30N 34°35' E 135°23'0 0.0
2014-Oct-15 23:24N 34°35' E 135°23'0 0.0
2014-Oct-15 22:24N 34°35' E 135°23'0 0.0
2014-Oct-15 21:24N 34°35' E 135°23'0 0.0
2014-Oct-15 20:24N 34°35' E 135°23'0 0.0
2014-Oct-15 19:24N 34°35' E 135°23'0 0.0
2014-Oct-15 18:24N 34°35' E 135°23'0 0.0
2014-Oct-15 17:30N 34°35' E 135°23'0 0.0
2014-Oct-15 16:24N 34°35' E 135°23'0 0.0
2014-Oct-15 15:24N 34°35' E 135°23'0 0.2
2014-Oct-15 14:33N 34°35' E 135°23'10 9.5
2014-Oct-15 13:33N 34°35' E 135°11'1211.8
2014-Oct-15 12:33N 34°36' E 134°57'  
2014-Oct-11 09:15N 34°34' E 134°49'811.5
2014-Oct-11 08:33N 34°37' E 134°58'1010.1
2014-Oct-11 07:33N 34°36' E 135°10'1211.7
2014-Oct-11 06:34N 34°36' E 135°24'1 1.2
2014-Oct-11 05:21N 34°35' E 135°26'0 0.0
2014-Oct-11 04:33N 34°35' E 135°26'0 0.0
2014-Oct-11 03:27N 34°35' E 135°26'0 0.0
2014-Oct-11 02:21N 34°35' E 135°26'0 0.1
2014-Oct-11 01:33N 34°35' E 135°26'0 0.0
2014-Oct-11 00:27N 34°35' E 135°26'0 0.0
2014-Oct-10 23:08N 34°35' E 135°26'0 0.0
2014-Oct-10 20:32N 34°35' E 135°26'0 0.0
2014-Oct-10 19:20N 34°35' E 135°26'0 0.0
2014-Oct-10 16:20N 34°35' E 135°26'0 0.0
2014-Oct-10 15:32N 34°35' E 135°26'0 0.0
2014-Oct-10 14:14N 34°35' E 135°26'0 0.0
2014-Oct-10 13:32N 34°35' E 135°26'0 0.0
2014-Oct-10 06:20N 34°35' E 135°26'0 0.0
2014-Oct-10 03:14N 34°35' E 135°26'0 0.0
2014-Oct-10 02:20N 34°35' E 135°26'0 0.1
2014-Oct-10 01:33N 34°35' E 135°26'2 1.7
2014-Oct-10 00:23N 34°35' E 135°23'0 0.0
2014-Oct-09 23:23N 34°35' E 135°23'0 0.0
2014-Oct-09 21:23N 34°35' E 135°23'0 0.0
2014-Oct-09 20:23N 34°35' E 135°23'0 0.0
2014-Oct-09 19:17N 34°35' E 135°23'0 0.0
2014-Oct-09 18:23N 34°35' E 135°23'0 0.0
2014-Oct-09 17:29N 34°35' E 135°23'0 0.0
2014-Oct-09 15:23N 34°35' E 135°23'0 0.0
2014-Oct-09 13:29N 34°35' E 135°23'0 0.0
2014-Oct-09 12:05N 34°35' E 135°23'0 0.0
2014-Oct-09 11:29N 34°35' E 135°23'0 0.0
2014-Oct-09 10:29N 34°35' E 135°23'0 0.0
2014-Oct-09 09:22N 34°35' E 135°23'0 0.0
2014-Oct-09 07:22N 34°35' E 135°23'0 0.0
2014-Oct-09 06:10N 34°35' E 135°23'0 0.1
2014-Oct-09 05:33N 34°35' E 135°23'4 3.9
2014-Oct-09 04:29N 34°39' E 135°26'0 0.0
2014-Oct-09 03:28N 34°39' E 135°26'0 0.0
2014-Oct-09 02:16N 34°39' E 135°26'0 0.0
2014-Oct-09 01:28N 34°39' E 135°26'0 0.0
2014-Oct-09 00:22N 34°39' E 135°26'0 0.0
2014-Oct-08 23:28N 34°39' E 135°26'0 0.0
2014-Oct-08 22:28N 34°39' E 135°26'0 0.0
2014-Oct-08 21:28N 34°39' E 135°26'0 0.0
2014-Oct-08 20:28N 34°39' E 135°26'0 0.0
2014-Oct-08 19:28N 34°39' E 135°26'0 0.0
2014-Oct-08 18:28N 34°39' E 135°26'0 0.0
2014-Oct-08 17:28N 34°39' E 135°26'0 0.0
2014-Oct-08 16:16N 34°39' E 135°26'0 0.0
2014-Oct-08 15:28N 34°39' E 135°26'0 0.0
2014-Oct-08 14:28N 34°39' E 135°26'0 0.0
2014-Oct-08 13:28N 34°39' E 135°26'0 0.0
2014-Oct-08 12:28N 34°39' E 135°26'0 0.0
2014-Oct-08 11:16N 34°39' E 135°26'0 0.0
2014-Oct-08 09:28N 34°39' E 135°26'0 0.0
2014-Oct-08 08:28N 34°39' E 135°26'  

Dump ship's entire track history